sensor_id;sensor_type;location;lat;lon;timestamp;temperature;humidity
32895;DHT22;19251;49.484;8.260;2023-07-09T00:04:53;22.70;27.20
32895;DHT22;19251;49.484;8.260;2023-07-09T00:09:55;22.70;27.70
32895;DHT22;19251;49.484;8.260;2023-07-09T00:14:58;22.60;27.00
32895;DHT22;19251;49.484;8.260;2023-07-09T00:20:02;22.30;26.20
32895;DHT22;19251;49.484;8.260;2023-07-09T00:25:10;22.40;27.00
32895;DHT22;19251;49.484;8.260;2023-07-09T00:30:18;22.20;26.50
32895;DHT22;19251;49.484;8.260;2023-07-09T00:35:22;22.20;26.40
32895;DHT22;19251;49.484;8.260;2023-07-09T00:40:26;22.50;26.80
32895;DHT22;19251;49.484;8.260;2023-07-09T00:45:30;22.40;27.40
32895;DHT22;19251;49.484;8.260;2023-07-09T00:50:39;22.50;27.90
32895;DHT22;19251;49.484;8.260;2023-07-09T00:55:51;22.30;27.50
32895;DHT22;19251;49.484;8.260;2023-07-09T01:01:09;22.30;27.00
32895;DHT22;19251;49.484;8.260;2023-07-09T01:06:15;22.30;27.20
32895;DHT22;19251;49.484;8.260;2023-07-09T01:11:22;22.20;27.80
32895;DHT22;19251;49.484;8.260;2023-07-09T01:16:28;22.10;27.00
32895;DHT22;19251;49.484;8.260;2023-07-09T01:21:31;21.90;27.60
32895;DHT22;19251;49.484;8.260;2023-07-09T01:26:34;22.00;27.80
32895;DHT22;19251;49.484;8.260;2023-07-09T01:31:37;22.10;27.10
32895;DHT22;19251;49.484;8.260;2023-07-09T01:36:39;22.00;27.00
32895;DHT22;19251;49.484;8.260;2023-07-09T01:41:41;22.00;27.10
32895;DHT22;19251;49.484;8.260;2023-07-09T01:46:44;21.80;27.00
32895;DHT22;19251;49.484;8.260;2023-07-09T01:51:51;22.00;27.20
32895;DHT22;19251;49.484;8.260;2023-07-09T01:56:54;21.90;27.80
32895;DHT22;19251;49.484;8.260;2023-07-09T02:02:03;21.80;27.30
32895;DHT22;19251;49.484;8.260;2023-07-09T02:07:08;22.10;27.70
32895;DHT22;19251;49.484;8.260;2023-07-09T02:12:10;22.10;28.40
32895;DHT22;19251;49.484;8.260;2023-07-09T02:17:14;21.60;27.20
32895;DHT22;19251;49.484;8.260;2023-07-09T02:22:17;21.70;28.00
32895;DHT22;19251;49.484;8.260;2023-07-09T02:27:21;21.80;27.50
32895;DHT22;19251;49.484;8.260;2023-07-09T02:32:26;21.60;27.50
32895;DHT22;19251;49.484;8.260;2023-07-09T02:37:28;21.50;28.20
32895;DHT22;19251;49.484;8.260;2023-07-09T02:42:31;21.60;27.80
32895;DHT22;19251;49.484;8.260;2023-07-09T02:47:33;21.40;27.40
32895;DHT22;19251;49.484;8.260;2023-07-09T02:52:37;21.40;28.00
32895;DHT22;19251;49.484;8.260;2023-07-09T02:57:39;21.30;28.00
32895;DHT22;19251;49.484;8.260;2023-07-09T03:02:41;21.30;28.60
32895;DHT22;19251;49.484;8.260;2023-07-09T03:07:43;21.30;28.10
32895;DHT22;19251;49.484;8.260;2023-07-09T03:12:45;21.30;27.70
32895;DHT22;19251;49.484;8.260;2023-07-09T03:17:47;21.00;27.40
32895;DHT22;19251;49.484;8.260;2023-07-09T03:22:50;21.10;27.60
32895;DHT22;19251;49.484;8.260;2023-07-09T03:27:52;21.10;27.60
32895;DHT22;19251;49.484;8.260;2023-07-09T03:32:54;21.10;28.40
32895;DHT22;19251;49.484;8.260;2023-07-09T03:37:56;21.20;28.00
32895;DHT22;19251;49.484;8.260;2023-07-09T03:42:58;21.20;28.00
32895;DHT22;19251;49.484;8.260;2023-07-09T03:48:01;20.90;27.80
32895;DHT22;19251;49.484;8.260;2023-07-09T03:53:04;20.90;27.80
32895;DHT22;19251;49.484;8.260;2023-07-09T03:58:07;20.90;27.80
32895;DHT22;19251;49.484;8.260;2023-07-09T04:03:10;21.00;27.80
32895;DHT22;19251;49.484;8.260;2023-07-09T04:08:15;20.90;27.80
32895;DHT22;19251;49.484;8.260;2023-07-09T04:13:17;21.00;28.60
32895;DHT22;19251;49.484;8.260;2023-07-09T04:18:19;21.00;28.00
32895;DHT22;19251;49.484;8.260;2023-07-09T04:23:21;21.00;28.00
32895;DHT22;19251;49.484;8.260;2023-07-09T04:28:23;21.10;28.30
32895;DHT22;19251;49.484;8.260;2023-07-09T04:33:26;21.10;28.20
32895;DHT22;19251;49.484;8.260;2023-07-09T04:38:28;21.10;28.30
32895;DHT22;19251;49.484;8.260;2023-07-09T04:43:32;21.30;28.70
32895;DHT22;19251;49.484;8.260;2023-07-09T04:48:36;21.30;28.70
32895;DHT22;19251;49.484;8.260;2023-07-09T04:53:40;21.20;28.60
32895;DHT22;19251;49.484;8.260;2023-07-09T04:58:43;21.30;29.00
32895;DHT22;19251;49.484;8.260;2023-07-09T05:03:45;21.30;29.00
32895;DHT22;19251;49.484;8.260;2023-07-09T05:08:47;21.40;29.20
32895;DHT22;19251;49.484;8.260;2023-07-09T05:18:55;21.60;29.60
32895;DHT22;19251;49.484;8.260;2023-07-09T05:23:57;21.60;30.40
32895;DHT22;19251;49.484;8.260;2023-07-09T05:28:59;21.90;30.00
32895;DHT22;19251;49.484;8.260;2023-07-09T05:34:02;22.00;30.00
32895;DHT22;19251;49.484;8.260;2023-07-09T05:39:04;22.00;29.90
32895;DHT22;19251;49.484;8.260;2023-07-09T05:44:06;22.30;30.00
32895;DHT22;19251;49.484;8.260;2023-07-09T05:49:09;22.50;30.30
32895;DHT22;19251;49.484;8.260;2023-07-09T05:54:14;22.90;31.50
32895;DHT22;19251;49.484;8.260;2023-07-09T05:59:16;23.20;30.80
32895;DHT22;19251;49.484;8.260;2023-07-09T06:04:18;23.00;31.50
32895;DHT22;19251;49.484;8.260;2023-07-09T06:09:20;23.30;31.70
32895;DHT22;19251;49.484;8.260;2023-07-09T06:14:22;23.40;31.50
32895;DHT22;19251;49.484;8.260;2023-07-09T06:19:25;23.50;32.20
32895;DHT22;19251;49.484;8.260;2023-07-09T06:24:27;24.10;31.90
32895;DHT22;19251;49.484;8.260;2023-07-09T06:29:29;24.20;31.90
32895;DHT22;19251;49.484;8.260;2023-07-09T06:34:31;24.30;31.30
32895;DHT22;19251;49.484;8.260;2023-07-09T06:39:33;24.90;31.00
32895;DHT22;19251;49.484;8.260;2023-07-09T06:44:36;24.80;30.90
32895;DHT22;19251;49.484;8.260;2023-07-09T06:49:38;25.50;29.20
32895;DHT22;19251;49.484;8.260;2023-07-09T06:54:40;25.70;28.70
32895;DHT22;19251;49.484;8.260;2023-07-09T06:59:42;25.80;29.20
32895;DHT22;19251;49.484;8.260;2023-07-09T07:04:45;26.10;28.10
32895;DHT22;19251;49.484;8.260;2023-07-09T07:09:47;26.40;27.30
32895;DHT22;19251;49.484;8.260;2023-07-09T07:14:49;26.70;27.60
32895;DHT22;19251;49.484;8.260;2023-07-09T07:19:51;27.20;26.60
32895;DHT22;19251;49.484;8.260;2023-07-09T07:24:54;27.30;24.60
32895;DHT22;19251;49.484;8.260;2023-07-09T07:29:56;27.50;23.80
32895;DHT22;19251;49.484;8.260;2023-07-09T07:34:58;27.80;23.90
32895;DHT22;19251;49.484;8.260;2023-07-09T07:40:00;27.80;21.90
32895;DHT22;19251;49.484;8.260;2023-07-09T07:45:03;28.20;22.60
32895;DHT22;19251;49.484;8.260;2023-07-09T07:50:06;28.50;20.70
32895;DHT22;19251;49.484;8.260;2023-07-09T07:55:09;28.80;20.20
32895;DHT22;19251;49.484;8.260;2023-07-09T08:00:17;29.00;18.70
32895;DHT22;19251;49.484;8.260;2023-07-09T08:05:21;28.90;18.50
32895;DHT22;19251;49.484;8.260;2023-07-09T08:10:24;29.80;18.50
32895;DHT22;19251;49.484;8.260;2023-07-09T08:15:27;29.60;17.60
32895;DHT22;19251;49.484;8.260;2023-07-09T08:20:30;29.90;16.60
32895;DHT22;19251;49.484;8.260;2023-07-09T08:25:32;30.10;16.50
32895;DHT22;19251;49.484;8.260;2023-07-09T08:30:35;30.30;16.30
32895;DHT22;19251;49.484;8.260;2023-07-09T08:35:38;30.50;15.90
32895;DHT22;19251;49.484;8.260;2023-07-09T08:40:40;30.70;15.20
32895;DHT22;19251;49.484;8.260;2023-07-09T08:46:03;30.80;14.60
32895;DHT22;19251;49.484;8.260;2023-07-09T08:56:33;31.20;13.50
32895;DHT22;19251;49.484;8.260;2023-07-09T09:01:49;31.40;13.00
32895;DHT22;19251;49.484;8.260;2023-07-09T09:07:00;31.70;13.70
32895;DHT22;19251;49.484;8.260;2023-07-09T09:12:16;31.90;12.10
32895;DHT22;19251;49.484;8.260;2023-07-09T09:17:20;32.10;11.80
32895;DHT22;19251;49.484;8.260;2023-07-09T09:22:26;32.40;11.60
32895;DHT22;19251;49.484;8.260;2023-07-09T09:27:31;32.60;10.80
32895;DHT22;19251;49.484;8.260;2023-07-09T09:32:41;32.80;10.50
32895;DHT22;19251;49.484;8.260;2023-07-09T09:37:52;33.00;10.00
32895;DHT22;19251;49.484;8.260;2023-07-09T09:42:56;33.20;10.00
32895;DHT22;19251;49.484;8.260;2023-07-09T09:48:29;33.50;9.20
32895;DHT22;19251;49.484;8.260;2023-07-09T09:53:38;33.70;8.60
32895;DHT22;19251;49.484;8.260;2023-07-09T09:58:41;33.90;8.40
32895;DHT22;19251;49.484;8.260;2023-07-09T10:03:46;34.10;7.60
32895;DHT22;19251;49.484;8.260;2023-07-09T10:09:11;34.30;6.80
32895;DHT22;19251;49.484;8.260;2023-07-09T10:19:58;34.70;5.00
32895;DHT22;19251;49.484;8.260;2023-07-09T10:25:20;35.00;5.20
32895;DHT22;19251;49.484;8.260;2023-07-09T10:36:14;35.30;3.40
32895;DHT22;19251;49.484;8.260;2023-07-09T10:41:21;35.50;2.60
32895;DHT22;19251;49.484;8.260;2023-07-09T10:46:33;35.80;2.20
32895;DHT22;19251;49.484;8.260;2023-07-09T10:51:52;36.00;2.50
32895;DHT22;19251;49.484;8.260;2023-07-09T10:57:08;36.20;1.20
32895;DHT22;19251;49.484;8.260;2023-07-09T11:02:26;36.40;1.00
32895;DHT22;19251;49.484;8.260;2023-07-09T11:07:43;36.60;1.00
32895;DHT22;19251;49.484;8.260;2023-07-09T11:12:48;36.90;1.00
32895;DHT22;19251;49.484;8.260;2023-07-09T11:17:52;37.00;1.00
32895;DHT22;19251;49.484;8.260;2023-07-09T11:23:05;37.20;1.00
32895;DHT22;19251;49.484;8.260;2023-07-09T11:28:08;37.50;1.00
32895;DHT22;19251;49.484;8.260;2023-07-09T11:33:45;37.70;1.00
32895;DHT22;19251;49.484;8.260;2023-07-09T11:38:47;38.00;1.00
32895;DHT22;19251;49.484;8.260;2023-07-09T11:43:52;38.30;1.00
32895;DHT22;19251;49.484;8.260;2023-07-09T11:48:57;38.50;1.00
32895;DHT22;19251;49.484;8.260;2023-07-09T11:54:00;38.80;1.00
32895;DHT22;19251;49.484;8.260;2023-07-09T11:59:02;38.90;1.00
32895;DHT22;19251;49.484;8.260;2023-07-09T12:04:05;39.20;1.00
32895;DHT22;19251;49.484;8.260;2023-07-09T12:09:16;39.60;1.00
32895;DHT22;19251;49.484;8.260;2023-07-09T12:14:20;39.80;1.00
32895;DHT22;19251;49.484;8.260;2023-07-09T12:19:24;40.10;1.00
32895;DHT22;19251;49.484;8.260;2023-07-09T12:24:36;40.30;1.00
32895;DHT22;19251;49.484;8.260;2023-07-09T12:29:39;40.60;1.00
32895;DHT22;19251;49.484;8.260;2023-07-09T12:34:41;40.80;1.00
32895;DHT22;19251;49.484;8.260;2023-07-09T12:39:44;41.10;1.00
32895;DHT22;19251;49.484;8.260;2023-07-09T12:44:46;41.40;1.00
32895;DHT22;19251;49.484;8.260;2023-07-09T12:50:02;41.60;1.00
32895;DHT22;19251;49.484;8.260;2023-07-09T12:55:05;41.80;1.00
32895;DHT22;19251;49.484;8.260;2023-07-09T13:00:16;41.90;1.00
32895;DHT22;19251;49.484;8.260;2023-07-09T13:05:22;42.00;1.00
32895;DHT22;19251;49.484;8.260;2023-07-09T13:10:29;42.10;1.00
32895;DHT22;19251;49.484;8.260;2023-07-09T13:15:57;42.30;1.00
32895;DHT22;19251;49.484;8.260;2023-07-09T13:21:13;42.50;1.00
32895;DHT22;19251;49.484;8.260;2023-07-09T13:26:17;42.70;1.00
32895;DHT22;19251;49.484;8.260;2023-07-09T13:31:20;42.90;1.00
32895;DHT22;19251;49.484;8.260;2023-07-09T13:36:23;43.00;1.00
32895;DHT22;19251;49.484;8.260;2023-07-09T13:41:25;43.20;1.00
32895;DHT22;19251;49.484;8.260;2023-07-09T13:46:27;43.20;1.00
32895;DHT22;19251;49.484;8.260;2023-07-09T13:51:30;43.30;1.00
32895;DHT22;19251;49.484;8.260;2023-07-09T13:56:33;43.30;1.00
32895;DHT22;19251;49.484;8.260;2023-07-09T14:01:36;43.20;1.00
32895;DHT22;19251;49.484;8.260;2023-07-09T14:06:39;43.10;1.00
32895;DHT22;19251;49.484;8.260;2023-07-09T14:11:49;43.00;1.00
32895;DHT22;19251;49.484;8.260;2023-07-09T14:16:52;43.10;1.00
32895;DHT22;19251;49.484;8.260;2023-07-09T14:21:54;43.30;1.00
32895;DHT22;19251;49.484;8.260;2023-07-09T14:26:57;43.60;1.00
32895;DHT22;19251;49.484;8.260;2023-07-09T14:31:59;43.90;1.00
32895;DHT22;19251;49.484;8.260;2023-07-09T14:37:06;44.30;1.00
32895;DHT22;19251;49.484;8.260;2023-07-09T14:42:12;44.80;1.00
32895;DHT22;19251;49.484;8.260;2023-07-09T14:47:20;45.00;1.00
32895;DHT22;19251;49.484;8.260;2023-07-09T14:52:22;45.10;1.00
32895;DHT22;19251;49.484;8.260;2023-07-09T14:57:26;45.00;1.00
32895;DHT22;19251;49.484;8.260;2023-07-09T15:02:37;45.00;1.00
32895;DHT22;19251;49.484;8.260;2023-07-09T15:07:41;45.10;1.00
32895;DHT22;19251;49.484;8.260;2023-07-09T15:12:44;45.00;1.00
32895;DHT22;19251;49.484;8.260;2023-07-09T15:17:47;44.80;1.00
32895;DHT22;19251;49.484;8.260;2023-07-09T15:22:50;44.50;1.00
32895;DHT22;19251;49.484;8.260;2023-07-09T15:27:53;44.50;1.00
32895;DHT22;19251;49.484;8.260;2023-07-09T15:32:57;44.40;1.00
32895;DHT22;19251;49.484;8.260;2023-07-09T15:43:26;43.70;1.00
32895;DHT22;19251;49.484;8.260;2023-07-09T15:48:35;43.20;1.00
32895;DHT22;19251;49.484;8.260;2023-07-09T15:53:37;42.70;1.00
32895;DHT22;19251;49.484;8.260;2023-07-09T15:58:43;42.40;1.00
32895;DHT22;19251;49.484;8.260;2023-07-09T16:03:51;42.20;1.00
32895;DHT22;19251;49.484;8.260;2023-07-09T16:08:53;42.20;1.00
32895;DHT22;19251;49.484;8.260;2023-07-09T16:13:56;42.10;1.00
32895;DHT22;19251;49.484;8.260;2023-07-09T16:18:58;41.90;1.00
32895;DHT22;19251;49.484;8.260;2023-07-09T16:24:08;41.50;1.00
32895;DHT22;19251;49.484;8.260;2023-07-09T16:29:36;41.00;1.00
32895;DHT22;19251;49.484;8.260;2023-07-09T16:34:38;40.50;1.00
32895;DHT22;19251;49.484;8.260;2023-07-09T16:39:42;40.00;1.00
32895;DHT22;19251;49.484;8.260;2023-07-09T16:44:44;39.40;1.00
32895;DHT22;19251;49.484;8.260;2023-07-09T16:49:47;39.20;1.00
32895;DHT22;19251;49.484;8.260;2023-07-09T16:54:50;38.50;1.00
32895;DHT22;19251;49.484;8.260;2023-07-09T17:00:15;38.10;1.00
32895;DHT22;19251;49.484;8.260;2023-07-09T17:05:16;37.80;1.00
32895;DHT22;19251;49.484;8.260;2023-07-09T17:10:19;37.50;1.00
32895;DHT22;19251;49.484;8.260;2023-07-09T17:15:27;37.30;1.00
32895;DHT22;19251;49.484;8.260;2023-07-09T17:20:30;37.20;1.00
32895;DHT22;19251;49.484;8.260;2023-07-09T17:25:37;37.10;1.00
32895;DHT22;19251;49.484;8.260;2023-07-09T17:30:40;37.00;1.00
32895;DHT22;19251;49.484;8.260;2023-07-09T17:35:43;37.00;1.00
32895;DHT22;19251;49.484;8.260;2023-07-09T17:40:46;37.10;1.00
32895;DHT22;19251;49.484;8.260;2023-07-09T17:45:50;37.10;1.00
32895;DHT22;19251;49.484;8.260;2023-07-09T17:50:52;37.10;1.00
32895;DHT22;19251;49.484;8.260;2023-07-09T17:55:54;37.10;1.00
32895;DHT22;19251;49.484;8.260;2023-07-09T18:01:03;37.00;1.00
32895;DHT22;19251;49.484;8.260;2023-07-09T18:06:05;36.80;1.00
32895;DHT22;19251;49.484;8.260;2023-07-09T18:11:26;36.70;1.00
32895;DHT22;19251;49.484;8.260;2023-07-09T18:16:30;36.50;1.00
32895;DHT22;19251;49.484;8.260;2023-07-09T18:21:32;36.30;1.00
32895;DHT22;19251;49.484;8.260;2023-07-09T18:26:35;36.10;1.00
32895;DHT22;19251;49.484;8.260;2023-07-09T18:31:37;35.60;1.00
32895;DHT22;19251;49.484;8.260;2023-07-09T18:36:39;35.50;1.00
32895;DHT22;19251;49.484;8.260;2023-07-09T18:41:42;35.20;1.00
32895;DHT22;19251;49.484;8.260;2023-07-09T18:46:47;34.90;1.40
32895;DHT22;19251;49.484;8.260;2023-07-09T18:51:49;34.60;1.80
32895;DHT22;19251;49.484;8.260;2023-07-09T18:56:51;34.40;2.60
32895;DHT22;19251;49.484;8.260;2023-07-09T19:01:54;34.10;3.30
32895;DHT22;19251;49.484;8.260;2023-07-09T19:06:56;33.80;3.20
32895;DHT22;19251;49.484;8.260;2023-07-09T19:11:59;33.60;3.90
32895;DHT22;19251;49.484;8.260;2023-07-09T19:17:15;33.30;3.90
32895;DHT22;19251;49.484;8.260;2023-07-09T19:22:17;33.20;4.10
32895;DHT22;19251;49.484;8.260;2023-07-09T19:27:21;32.70;4.30
32895;DHT22;19251;49.484;8.260;2023-07-09T19:32:26;32.50;4.40
32895;DHT22;19251;49.484;8.260;2023-07-09T19:37:28;32.40;5.30
32895;DHT22;19251;49.484;8.260;2023-07-09T19:42:31;32.10;5.00
32895;DHT22;19251;49.484;8.260;2023-07-09T19:47:35;31.90;7.20
32895;DHT22;19251;49.484;8.260;2023-07-09T19:52:37;31.60;7.10
32895;DHT22;19251;49.484;8.260;2023-07-09T19:57:39;31.40;7.50
32895;DHT22;19251;49.484;8.260;2023-07-09T20:02:42;31.20;7.80
32895;DHT22;19251;49.484;8.260;2023-07-09T20:07:44;30.90;8.30
32895;DHT22;19251;49.484;8.260;2023-07-09T20:12:51;30.70;8.70
32895;DHT22;19251;49.484;8.260;2023-07-09T20:18:04;30.50;9.10
32895;DHT22;19251;49.484;8.260;2023-07-09T20:23:13;30.30;9.40
32895;DHT22;19251;49.484;8.260;2023-07-09T20:28:21;30.10;9.90
32895;DHT22;19251;49.484;8.260;2023-07-09T20:33:25;29.80;10.30
32895;DHT22;19251;49.484;8.260;2023-07-09T20:38:28;29.50;9.90
32895;DHT22;19251;49.484;8.260;2023-07-09T20:43:38;29.40;11.30
32895;DHT22;19251;49.484;8.260;2023-07-09T20:48:41;28.80;11.50
32895;DHT22;19251;49.484;8.260;2023-07-09T20:53:43;29.00;12.20
32895;DHT22;19251;49.484;8.260;2023-07-09T20:58:51;28.80;11.90
32895;DHT22;19251;49.484;8.260;2023-07-09T21:03:54;28.70;13.10
32895;DHT22;19251;49.484;8.260;2023-07-09T21:08:56;28.50;13.60
32895;DHT22;19251;49.484;8.260;2023-07-09T21:13:58;28.40;14.30
32895;DHT22;19251;49.484;8.260;2023-07-09T21:19:00;28.30;14.50
32895;DHT22;19251;49.484;8.260;2023-07-09T21:24:15;28.30;14.50
32895;DHT22;19251;49.484;8.260;2023-07-09T21:29:19;27.90;15.30
32895;DHT22;19251;49.484;8.260;2023-07-09T21:34:25;27.90;14.90
32895;DHT22;19251;49.484;8.260;2023-07-09T21:39:31;27.80;14.80
32895;DHT22;19251;49.484;8.260;2023-07-09T21:44:33;27.80;15.20
32895;DHT22;19251;49.484;8.260;2023-07-09T21:49:38;27.70;16.70
32895;DHT22;19251;49.484;8.260;2023-07-09T21:54:41;27.70;16.10
32895;DHT22;19251;49.484;8.260;2023-07-09T21:59:51;27.70;16.20
32895;DHT22;19251;49.484;8.260;2023-07-09T22:04:53;27.60;16.50
32895;DHT22;19251;49.484;8.260;2023-07-09T22:09:56;27.60;16.40
32895;DHT22;19251;49.484;8.260;2023-07-09T22:14:59;27.50;16.90
32895;DHT22;19251;49.484;8.260;2023-07-09T22:20:06;27.30;16.40
32895;DHT22;19251;49.484;8.260;2023-07-09T22:25:19;27.30;17.20
32895;DHT22;19251;49.484;8.260;2023-07-09T22:30:26;27.20;17.60
32895;DHT22;19251;49.484;8.260;2023-07-09T22:35:33;27.10;17.80
32895;DHT22;19251;49.484;8.260;2023-07-09T22:40:37;26.90;17.10
32895;DHT22;19251;49.484;8.260;2023-07-09T22:45:39;26.90;18.30
32895;DHT22;19251;49.484;8.260;2023-07-09T22:50:43;26.80;18.40
32895;DHT22;19251;49.484;8.260;2023-07-09T22:55:47;26.80;18.70
32895;DHT22;19251;49.484;8.260;2023-07-09T23:00:59;26.70;18.70
32895;DHT22;19251;49.484;8.260;2023-07-09T23:06:29;26.90;18.80
32895;DHT22;19251;49.484;8.260;2023-07-09T23:11:39;26.90;18.80
32895;DHT22;19251;49.484;8.260;2023-07-09T23:16:42;27.60;19.70
32895;DHT22;19251;49.484;8.260;2023-07-09T23:21:47;26.80;19.20
32895;DHT22;19251;49.484;8.260;2023-07-09T23:26:51;26.80;19.30
32895;DHT22;19251;49.484;8.260;2023-07-09T23:31:54;26.70;19.10
32895;DHT22;19251;49.484;8.260;2023-07-09T23:36:56;26.80;19.90
32895;DHT22;19251;49.484;8.260;2023-07-09T23:41:58;26.80;18.80
32895;DHT22;19251;49.484;8.260;2023-07-09T23:47:00;26.80;19.50
32895;DHT22;19251;49.484;8.260;2023-07-09T23:52:07;26.70;19.70
32895;DHT22;19251;49.484;8.260;2023-07-09T23:57:11;26.60;19.70
